Time;durP1;ratioP1;P1;durP2;ratioP2;P2;SDS_P1;SDS_P2;PMS_P1;PMS_P2;Temp;Humidity;BMP_temperature;BMP_pressure;BME280_temperature;BME280_humidity;BME280_pressure;Samples;Min_cycle;Max_cycle;Signal;HPM_P1;HPM_P2
2024/02/15 00:00:03;;;;;;;2.67;1.83;;;;;;;6.34;96.56;102126.25;2086158;28;20245;-67
2024/02/15 00:01:04;;;;;;;2.35;1.55;;;;;;;5.32;96.48;101953.84;2087652;28;20276;-67
2024/02/15 00:02:05;;;;;;;3.40;1.87;;;;;;;6.32;96.33;102123.09;2085020;28;20207;-67
2024/02/15 00:03:06;;;;;;;2.63;1.83;;;;;;;6.16;96.66;102103.16;2086154;28;20202;-67
2024/02/15 00:04:06;;;;;;;2.80;1.92;;;;;;;6.30;96.77;102120.69;2085266;28;20708;-67
2024/02/15 00:05:07;;;;;;;3.13;1.80;;;;;;;6.22;97.49;102116.25;2084642;28;20561;-67
2024/02/15 00:06:08;;;;;;;3.40;2.00;;;;;;;6.20;96.76;102110.28;2085628;28;20681;-67
2024/02/15 00:07:09;;;;;;;6.33;1.93;;;;;;;6.26;96.98;102124.56;2087067;28;20956;-66
2024/02/15 00:08:09;;;;;;;2.92;2.00;;;;;;;6.25;97.47;102123.75;2084202;28;21707;-67
2024/02/15 00:09:10;;;;;;;3.20;2.03;;;;;;;5.04;97.27;101947.00;2085726;28;20670;-67
2024/02/15 00:10:11;;;;;;;3.60;1.83;;;;;;;6.18;98.14;102131.09;2085310;28;20640;-67
2024/02/15 00:11:13;;;;;;;3.10;1.90;;;;;;;6.18;97.93;102136.59;2085195;28;20211;-67
2024/02/15 00:12:14;;;;;;;4.40;2.35;;;;;;;6.15;98.98;102156.63;2084803;28;20676;-67
2024/02/15 00:13:14;;;;;;;5.67;3.03;;;;;;;6.13;98.95;102134.94;2087855;28;20643;-67
2024/02/15 00:14:15;;;;;;;2.97;1.70;;;;;;;6.14;98.99;102131.03;2085022;28;20204;-67
2024/02/15 00:15:15;;;;;;;3.23;2.17;;;;;;;6.18;98.85;102139.34;2086046;28;20185;-67
2024/02/15 00:16:16;;;;;;;4.40;1.73;;;;;;;6.15;99.01;102140.09;2084924;28;20273;-67
2024/02/15 00:17:18;;;;;;;5.23;2.47;;;;;;;6.14;99.95;102133.78;2084627;28;20327;-67
2024/02/15 00:18:18;;;;;;;3.58;2.00;;;;;;;6.10;100.00;102135.66;2085221;28;20265;-67
2024/02/15 00:19:19;;;;;;;6.57;2.33;;;;;;;6.07;100.00;102138.38;2087180;28;20234;-67
2024/02/15 00:20:20;;;;;;;6.80;2.23;;;;;;;6.10;100.00;102143.16;2085422;28;20192;-67
2024/02/15 00:21:22;;;;;;;4.30;2.33;;;;;;;6.05;100.00;102132.44;2085842;28;20663;-67
2024/02/15 00:22:23;;;;;;;3.67;1.90;;;;;;;6.08;100.00;102131.69;2085479;28;20580;-67
2024/02/15 00:23:23;;;;;;;6.23;2.53;;;;;;;6.07;100.00;102139.19;2085781;28;20222;-67
2024/02/15 00:24:24;;;;;;;3.63;2.23;;;;;;;6.02;100.00;102133.16;2084950;28;20192;-67
2024/02/15 00:25:25;;;;;;;7.60;3.07;;;;;;;6.06;100.00;102148.56;2086841;28;20199;-67
2024/02/15 00:26:26;;;;;;;5.32;2.83;;;;;;;6.03;100.00;102145.75;2086296;28;20621;-67
2024/02/15 00:27:26;;;;;;;4.20;2.10;;;;;;;5.99;100.00;102148.44;2083869;28;20346;-67
2024/02/15 00:28:27;;;;;;;4.03;1.73;;;;;;;5.97;100.00;102142.53;2085101;28;20199;-67
2024/02/15 00:29:29;;;;;;;3.20;1.80;;;;;;;5.95;100.00;102144.03;2084748;28;20197;-67
2024/02/15 00:30:29;;;;;;;4.50;2.83;;;;;;;5.93;100.00;102147.16;2084895;28;20214;-67
2024/02/15 00:31:30;;;;;;;4.77;2.70;;;;;;;4.71;100.00;101961.25;2086406;28;20203;-67
2024/02/15 00:32:30;;;;;;;3.90;2.50;;;;;;;5.25;100.00;102033.44;2087542;28;20270;-67
2024/02/15 00:33:31;;;;;;;6.13;2.07;;;;;;;5.23;100.00;102038.47;2084954;28;20196;-67
2024/02/15 00:34:33;;;;;;;4.20;1.80;;;;;;;5.89;100.00;102143.53;2085148;28;20184;-67
2024/02/15 00:35:33;;;;;;;3.25;1.65;;;;;;;5.91;100.00;102145.94;2085201;28;20260;-67
2024/02/15 00:36:34;;;;;;;3.27;1.90;;;;;;;5.88;100.00;102147.44;2084062;28;20326;-67
2024/02/15 00:37:35;;;;;;;4.20;2.13;;;;;;;5.90;100.00;102147.09;2083867;28;20227;-67
2024/02/15 00:38:36;;;;;;;3.55;2.13;;;;;;;5.82;100.00;102137.91;2086709;28;20196;-67
2024/02/15 00:39:38;;;;;;;3.28;1.92;;;;;;;5.90;100.00;102144.34;2085770;28;20271;-67
2024/02/15 00:40:39;;;;;;;3.80;2.05;;;;;;;5.90;100.00;102142.38;2085062;28;20196;-67
2024/02/15 00:41:41;;;;;;;2.65;1.70;;;;;;;5.53;100.00;102086.22;2085885;28;20931;-66
2024/02/15 00:42:43;;;;;;;4.05;1.95;;;;;;;5.09;100.00;102007.16;2085700;28;20239;-67
2024/02/15 00:43:43;;;;;;;3.05;1.92;;;;;;;5.35;100.00;102046.59;2084714;28;20198;-67
2024/02/15 00:44:44;;;;;;;3.07;2.17;;;;;;;5.94;100.00;102143.25;2087537;28;20238;-67
2024/02/15 00:45:45;;;;;;;3.03;1.80;;;;;;;5.95;100.00;102146.78;2085087;28;20805;-67
2024/02/15 00:46:47;;;;;;;3.23;2.07;;;;;;;5.95;100.00;102146.78;2085145;28;20207;-67
2024/02/15 00:47:48;;;;;;;4.50;2.95;;;;;;;5.53;100.00;102082.69;2084670;28;20191;-67
2024/02/15 00:48:48;;;;;;;3.70;1.97;;;;;;;5.97;100.00;102150.78;2085303;28;20195;-67
2024/02/15 00:49:50;;;;;;;3.63;1.70;;;;;;;5.98;100.00;102148.81;2085477;28;20228;-67
2024/02/15 00:50:50;;;;;;;3.03;1.85;;;;;;;5.98;100.00;102146.06;2085613;28;20215;-67
2024/02/15 00:51:51;;;;;;;3.00;2.03;;;;;;;5.93;100.00;102138.91;2087234;28;20688;-70
2024/02/15 00:52:51;;;;;;;3.27;2.10;;;;;;;6.05;100.00;102146.97;2085829;28;20247;-69
2024/02/15 00:53:52;;;;;;;2.77;2.07;;;;;;;6.07;100.00;102150.19;2085050;28;20196;-69
2024/02/15 00:54:52;;;;;;;1.87;1.60;;;;;;;6.09;100.00;102142.34;2085405;28;20232;-69
2024/02/15 00:55:53;;;;;;;4.30;2.70;;;;;;;6.02;99.93;102122.97;2084464;28;20184;-69
2024/02/15 00:56:53;;;;;;;2.87;1.90;;;;;;;6.06;99.70;102137.56;2084816;28;20237;-69
2024/02/15 00:57:54;;;;;;;2.83;1.80;;;;;;;5.92;99.67;102126.31;2086370;28;20187;-69
2024/02/15 00:58:54;;;;;;;4.07;2.13;;;;;;;6.02;99.58;102144.16;2085309;28;20282;-69
2024/02/15 00:59:55;;;;;;;2.57;2.03;;;;;;;5.97;99.50;102139.78;2085145;28;20200;-69
2024/02/15 01:00:55;;;;;;;3.70;2.20;;;;;;;5.89;99.53;102142.75;2085377;28;20188;-69
2024/02/15 01:01:56;;;;;;;2.90;1.90;;;;;;;5.84;99.83;102141.06;2092231;28;20191;-69
2024/02/15 01:02:56;;;;;;;3.43;2.07;;;;;;;5.61;100.00;102117.41;2093182;28;20179;-69
2024/02/15 01:03:57;;;;;;;2.17;1.63;;;;;;;5.01;100.00;102019.97;2087152;28;20186;-69
2024/02/15 01:04:58;;;;;;;4.33;2.43;;;;;;;5.78;100.00;102149.94;2084975;28;20239;-67
2024/02/15 01:05:59;;;;;;;2.35;1.75;;;;;;;5.74;100.00;102138.88;2085280;28;20234;-67
2024/02/15 01:06:59;;;;;;;6.33;2.07;;;;;;;5.73;100.00;102142.00;2084410;28;20196;-67
2024/02/15 01:08:00;;;;;;;3.40;2.00;;;;;;;5.69;100.00;102138.41;2084442;28;20196;-67
2024/02/15 01:09:03;;;;;;;3.90;2.40;;;;;;;5.62;100.00;102136.28;2084945;28;20322;-67
2024/02/15 01:10:05;;;;;;;2.47;1.60;;;;;;;5.51;100.00;102121.53;2086662;28;20184;-67
2024/02/15 01:11:07;;;;;;;4.97;2.65;;;;;;;5.02;100.00;102040.78;2076770;28;20219;-67
2024/02/15 01:12:08;;;;;;;4.40;2.60;;;;;;;5.54;100.00;102117.25;2084591;28;20203;-67
2024/02/15 01:13:09;;;;;;;5.47;2.17;;;;;;;5.48;100.00;102125.00;2084632;28;20243;-67
2024/02/15 01:14:09;;;;;;;3.47;2.47;;;;;;;5.46;100.00;102124.56;2085056;28;20278;-67
2024/02/15 01:15:10;;;;;;;3.60;2.07;;;;;;;5.41;100.00;102122.13;2084980;28;20188;-67
2024/02/15 01:16:10;;;;;;;4.33;2.53;;;;;;;5.43;100.00;102127.25;2086908;28;20223;-67
2024/02/15 01:17:11;;;;;;;4.43;2.30;;;;;;;5.44;100.00;102128.84;2083978;28;20195;-67
2024/02/15 01:18:12;;;;;;;3.90;1.90;;;;;;;5.43;100.00;102130.78;2083417;28;20191;-67
2024/02/15 01:19:12;;;;;;;3.40;2.13;;;;;;;5.27;100.00;102110.81;2085603;28;20195;-67
2024/02/15 01:20:13;;;;;;;2.90;1.87;;;;;;;4.53;100.00;101998.53;2084942;28;20317;-66
2024/02/15 01:21:13;;;;;;;3.93;2.20;;;;;;;5.38;100.00;102124.78;2084413;28;20194;-67
2024/02/15 01:22:14;;;;;;;3.97;2.33;;;;;;;5.34;100.00;102129.41;2088048;28;20192;-67
2024/02/15 01:23:14;;;;;;;4.67;2.20;;;;;;;5.31;100.00;102125.44;2087245;28;20199;-67
2024/02/15 01:24:15;;;;;;;3.87;2.10;;;;;;;5.31;100.00;102130.13;2086945;28;20203;-67
2024/02/15 01:25:16;;;;;;;3.87;2.60;;;;;;;5.23;100.00;102114.66;2086281;28;20245;-67
2024/02/15 01:26:17;;;;;;;4.32;2.38;;;;;;;5.23;100.00;102133.88;2085181;28;20231;-67
2024/02/15 01:27:18;;;;;;;3.10;1.93;;;;;;;5.27;100.00;102127.31;2084752;28;20191;-67
2024/02/15 01:28:19;;;;;;;5.13;2.40;;;;;;;4.19;100.00;101955.41;2086827;28;20201;-67
2024/02/15 01:29:20;;;;;;;6.45;2.53;;;;;;;5.26;100.00;102117.47;2088546;28;20190;-67
2024/02/15 01:30:21;;;;;;;4.25;1.88;;;;;;;5.22;100.00;102121.28;2086743;28;20567;-67
2024/02/15 01:31:21;;;;;;;4.83;2.60;;;;;;;5.26;100.00;102120.22;2094208;28;20287;-67
2024/02/15 01:32:22;;;;;;;5.03;3.03;;;;;;;5.25;100.00;102126.06;2093837;28;20243;-67
2024/02/15 01:33:22;;;;;;;4.53;2.50;;;;;;;5.25;100.00;102126.06;2087246;28;20179;-67
2024/02/15 01:34:23;;;;;;;3.03;2.10;;;;;;;5.24;100.00;102124.47;2085977;28;20191;-67
2024/02/15 01:35:27;;;;;;;4.17;2.50;;;;;;;5.11;100.00;102103.78;2089007;28;20267;-67
2024/02/15 01:36:27;;;;;;;3.75;2.60;;;;;;;4.47;100.00;102004.66;2085743;28;20235;-67
2024/02/15 01:37:28;;;;;;;5.30;2.13;;;;;;;5.21;100.00;102126.00;2085845;28;20198;-67
2024/02/15 01:38:28;;;;;;;3.20;2.17;;;;;;;5.26;100.00;102128.47;2085616;28;20218;-67
2024/02/15 01:39:29;;;;;;;3.60;1.93;;;;;;;5.26;100.00;102127.66;2086583;28;20390;-67
2024/02/15 01:40:29;;;;;;;5.30;2.10;;;;;;;5.25;100.00;102115.88;2086480;28;20183;-67
2024/02/15 01:41:30;;;;;;;3.37;1.70;;;;;;;5.29;100.00;102124.19;2088539;28;20273;-67
2024/02/15 01:42:30;;;;;;;3.90;2.03;;;;;;;5.28;100.00;102128.13;2087190;28;20570;-67
2024/02/15 01:43:31;;;;;;;3.60;2.00;;;;;;;5.30;100.00;102126.59;2086355;28;20196;-67
2024/02/15 01:44:31;;;;;;;4.60;2.07;;;;;;;4.85;100.00;102054.13;2085461;28;20203;-67
2024/02/15 01:45:32;;;;;;;2.87;1.60;;;;;;;5.30;100.00;102123.84;2086804;28;20681;-67
2024/02/15 01:46:33;;;;;;;4.30;2.60;;;;;;;5.30;100.00;102137.59;2085473;28;20183;-67
2024/02/15 01:47:33;;;;;;;4.03;2.40;;;;;;;5.32;100.00;102134.47;2087477;28;20218;-67
2024/02/15 01:48:37;;;;;;;4.13;1.93;;;;;;;4.52;100.00;102018.09;2085985;28;20200;-67
2024/02/15 01:49:37;;;;;;;4.45;1.98;;;;;;;5.35;100.00;102123.56;2086966;28;20231;-67
2024/02/15 01:50:38;;;;;;;6.07;1.70;;;;;;;5.36;100.00;102127.09;2086704;28;20188;-67
2024/02/15 01:51:40;;;;;;;5.43;2.45;;;;;;;5.35;100.00;102126.31;2086791;28;20199;-67
2024/02/15 01:52:43;;;;;;;4.57;1.80;;;;;;;5.36;100.00;102125.16;2086823;28;20286;-67
2024/02/15 01:53:44;;;;;;;2.53;1.58;;;;;;;5.37;100.00;102126.72;2086870;28;20188;-67
2024/02/15 01:54:46;;;;;;;3.47;2.17;;;;;;;5.37;100.00;102126.72;2087845;28;20198;-67
2024/02/15 01:55:46;;;;;;;3.10;2.00;;;;;;;5.38;100.00;102125.56;2086041;28;20202;-67
2024/02/15 01:56:47;;;;;;;2.53;1.80;;;;;;;5.38;100.00;102125.56;2085729;28;20216;-67
2024/02/15 01:57:48;;;;;;;3.13;1.90;;;;;;;5.15;100.00;102101.91;2085216;28;20192;-67
2024/02/15 01:58:49;;;;;;;2.67;1.60;;;;;;;4.81;100.00;102043.06;2086337;28;20423;-67
2024/02/15 01:59:52;;;;;;;4.03;2.43;;;;;;;5.37;100.00;102131.41;2086766;28;20192;-67
2024/02/15 02:00:53;;;;;;;3.15;2.30;;;;;;;5.39;100.00;102127.16;2088612;28;20602;-67
2024/02/15 02:01:53;;;;;;;3.22;1.67;;;;;;;5.39;100.00;102129.91;2086317;28;20268;-67
2024/02/15 02:03:01;;;;;;;3.37;1.80;;;;;;;5.38;100.00;102144.81;2085940;28;20204;-67
2024/02/15 02:04:02;;;;;;;3.22;2.40;;;;;;;5.37;100.00;102134.97;2087108;28;20291;-67
2024/02/15 02:05:03;;;;;;;3.42;2.08;;;;;;;5.35;100.00;102129.06;2086668;28;20569;-67
2024/02/15 02:06:04;;;;;;;4.27;2.37;;;;;;;5.36;100.00;102133.41;2085143;28;20192;-67
2024/02/15 02:07:05;;;;;;;3.25;1.80;;;;;;;5.37;100.00;102137.72;2085607;28;20188;-69
2024/02/15 02:08:09;;;;;;;3.25;1.73;;;;;;;5.41;100.00;102135.84;2086647;28;20191;-69
2024/02/15 02:09:14;;;;;;;2.77;1.80;;;;;;;5.41;100.00;102154.28;2086621;28;20196;-69
2024/02/15 02:10:15;;;;;;;4.18;1.77;;;;;;;5.39;100.00;102135.41;2086643;28;20458;-69
2024/02/15 02:11:16;;;;;;;3.23;2.17;;;;;;;5.40;100.00;102142.53;2087110;28;20212;-69
2024/02/15 02:12:17;;;;;;;3.57;2.03;;;;;;;5.41;100.00;102143.28;2086298;28;20278;-70
2024/02/15 02:13:18;;;;;;;3.95;1.88;;;;;;;5.11;100.00;102087.28;2085776;28;20188;-70
2024/02/15 02:14:20;;;;;;;4.43;2.30;;;;;;;5.45;100.00;102136.72;2085999;28;20211;-69
2024/02/15 02:15:20;;;;;;;3.88;2.30;;;;;;;5.02;100.00;102062.75;2088808;28;20184;-69
2024/02/15 02:16:35;;;;;;;2.17;1.77;;;;;;;5.57;100.00;102138.53;2085632;28;20187;-69
2024/02/15 02:17:35;;;;;;;2.33;1.67;;;;;;;5.58;100.00;102138.16;2085575;28;20184;-69
2024/02/15 02:18:36;;;;;;;6.47;2.27;;;;;;;5.58;100.00;102140.91;2085648;28;20681;-69
2024/02/15 02:19:38;;;;;;;6.53;2.40;;;;;;;5.61;100.00;102134.72;2094094;28;20237;-69
2024/02/15 02:20:39;;;;;;;2.88;2.17;;;;;;;5.46;100.00;102118.25;2093614;28;20195;-69
2024/02/15 02:21:39;;;;;;;4.80;2.73;;;;;;;5.58;100.00;102129.09;2086950;28;20178;-67
2024/02/15 02:22:41;;;;;;;4.43;2.13;;;;;;;5.61;100.00;102137.47;2087645;28;20188;-67
2024/02/15 02:23:42;;;;;;;3.78;1.70;;;;;;;4.56;100.00;101983.28;2086431;28;20705;-67
2024/02/15 02:24:53;;;;;;;2.85;1.75;;;;;;;5.53;100.00;102140.44;2086665;28;20197;-67
2024/02/15 02:25:55;;;;;;;4.13;1.90;;;;;;;5.51;100.00;102142.72;2086293;28;20199;-67
2024/02/15 02:26:56;;;;;;;3.22;1.67;;;;;;;4.53;100.00;101989.47;2085694;28;20202;-67
2024/02/15 02:27:56;;;;;;;3.57;2.00;;;;;;;5.49;100.00;102143.09;2084225;28;20195;-67
2024/02/15 02:28:59;;;;;;;2.80;1.80;;;;;;;5.33;100.00;102123.09;2085565;28;20615;-67
2024/02/15 02:29:59;;;;;;;5.38;2.10;;;;;;;5.42;100.00;102142.13;2086751;28;20240;-67
2024/02/15 02:31:00;;;;;;;3.10;1.90;;;;;;;5.42;100.00;102142.13;2087965;28;20257;-67
2024/02/15 02:32:01;;;;;;;5.03;2.10;;;;;;;5.07;100.00;102095.44;2094160;28;20701;-67
2024/02/15 02:33:01;;;;;;;3.13;1.97;;;;;;;5.35;100.00;102145.56;2093971;28;20199;-67
2024/02/15 02:34:03;;;;;;;3.83;2.07;;;;;;;5.03;100.00;102107.53;2085968;28;20275;-66
2024/02/15 02:35:07;;;;;;;3.78;2.00;;;;;;;5.32;100.00;102146.25;2086665;28;20947;-67
2024/02/15 02:36:10;;;;;;;3.13;1.77;;;;;;;5.31;100.00;102150.16;2084940;28;20209;-67
2024/02/15 02:37:11;;;;;;;3.60;2.22;;;;;;;5.29;100.00;102152.47;2087632;28;20172;-67
2024/02/15 02:38:13;;;;;;;3.22;1.77;;;;;;;5.28;100.00;102152.84;2085779;28;20269;-67
2024/02/15 02:39:13;;;;;;;2.75;1.77;;;;;;;5.30;100.00;102154.09;2086125;28;20820;-67
2024/02/15 02:40:14;;;;;;;3.70;1.80;;;;;;;5.30;100.00;102148.59;2085795;28;20566;-67
2024/02/15 02:41:14;;;;;;;3.27;2.47;;;;;;;5.25;100.00;102148.06;2085982;28;20250;-67
2024/02/15 02:42:15;;;;;;;5.80;2.10;;;;;;;5.23;100.00;102150.38;2085852;28;20223;-67
2024/02/15 02:43:15;;;;;;;4.87;1.97;;;;;;;5.26;100.00;102155.94;2086916;28;20215;-67
2024/02/15 02:44:16;;;;;;;2.03;1.53;;;;;;;5.24;100.00;102161.00;2087229;28;20618;-67
2024/02/15 02:45:19;;;;;;;4.03;1.60;;;;;;;5.21;100.00;102158.16;2086404;28;20203;-67
2024/02/15 02:46:20;;;;;;;4.20;2.85;;;;;;;5.17;100.00;102152.59;2085583;28;20219;-67
2024/02/15 02:47:21;;;;;;;2.80;1.80;;;;;;;5.21;100.00;102169.97;2085011;28;20197;-67
2024/02/15 02:48:21;;;;;;;3.50;1.73;;;;;;;5.26;100.00;102158.69;2085460;28;20241;-67
2024/02/15 02:49:22;;;;;;;3.87;2.30;;;;;;;5.27;100.00;102156.72;2085358;28;20891;-67
2024/02/15 02:50:23;;;;;;;3.13;1.63;;;;;;;5.25;100.00;102162.59;2087761;28;20428;-67
2024/02/15 02:51:24;;;;;;;4.55;2.60;;;;;;;5.27;100.00;102148.47;2086234;28;20216;-67
2024/02/15 02:52:24;;;;;;;4.37;2.10;;;;;;;5.32;100.00;102156.44;2085685;28;20208;-67
2024/02/15 02:53:25;;;;;;;4.27;2.00;;;;;;;5.33;100.00;102158.06;2086500;28;20200;-67
2024/02/15 02:54:25;;;;;;;4.20;2.17;;;;;;;5.35;100.00;102159.28;2086407;28;20216;-67
2024/02/15 02:55:27;;;;;;;4.60;2.27;;;;;;;5.41;100.00;102162.53;2086616;28;20196;-67
2024/02/15 02:56:27;;;;;;;3.25;1.80;;;;;;;5.45;100.00;102164.22;2087641;28;20214;-67
2024/02/15 02:57:28;;;;;;;3.57;1.87;;;;;;;5.48;100.00;102162.72;2092361;28;20277;-67
2024/02/15 02:58:28;;;;;;;3.13;2.03;;;;;;;5.40;100.00;102139.78;2093350;28;20188;-67
2024/02/15 02:59:29;;;;;;;2.87;1.83;;;;;;;5.48;100.00;102147.00;2085328;28;20298;-67
2024/02/15 03:00:29;;;;;;;4.77;1.53;;;;;;;5.56;100.00;102161.69;2085598;28;20259;-67
2024/02/15 03:01:30;;;;;;;3.17;1.77;;;;;;;5.58;100.00;102160.16;2086150;28;20185;-67
2024/02/15 03:02:30;;;;;;;4.03;2.03;;;;;;;5.61;100.00;102164.97;2087744;28;20185;-67
2024/02/15 03:03:31;;;;;;;4.17;2.03;;;;;;;5.67;100.00;102160.75;2086223;28;20192;-67
2024/02/15 03:04:32;;;;;;;3.37;2.00;;;;;;;5.68;100.00;102165.09;2086114;28;20233;-67
2024/02/15 03:05:33;;;;;;;3.08;1.80;;;;;;;4.80;100.00;102024.22;2086192;28;20394;-67
2024/02/15 03:06:34;;;;;;;5.00;2.30;;;;;;;5.71;100.00;102164.38;2093235;28;20209;-67
2024/02/15 03:07:36;;;;;;;4.65;1.98;;;;;;;5.35;100.00;102103.50;2092397;28;20243;-67
2024/02/15 03:08:37;;;;;;;6.07;1.83;;;;;;;5.70;100.00;102156.47;2087851;28;20180;-67
2024/02/15 03:09:37;;;;;;;4.30;2.07;;;;;;;5.78;100.00;102164.50;2085516;28;20330;-66
2024/02/15 03:10:38;;;;;;;6.17;2.30;;;;;;;5.73;100.00;102158.50;2085019;28;20219;-67
2024/02/15 03:11:39;;;;;;;3.92;1.98;;;;;;;5.75;100.00;102164.44;2085792;28;20302;-67
2024/02/15 03:12:40;;;;;;;6.13;2.33;;;;;;;5.73;100.00;102158.50;2085140;28;20201;-67
2024/02/15 03:13:44;;;;;;;3.80;2.15;;;;;;;5.76;100.00;102166.03;2086009;28;20376;-67
2024/02/15 03:14:45;;;;;;;3.00;1.83;;;;;;;5.69;100.00;102150.19;2086009;28;20188;-67
2024/02/15 03:15:49;;;;;;;7.05;2.20;;;;;;;5.77;100.00;102170.38;2087715;28;20188;-67
2024/02/15 03:16:49;;;;;;;2.83;1.70;;;;;;;5.63;99.96;102142.56;2083962;28;20216;-67
2024/02/15 03:17:51;;;;;;;5.77;1.97;;;;;;;5.06;100.00;102060.91;2084424;28;20202;-67
2024/02/15 03:18:52;;;;;;;3.88;2.15;;;;;;;5.75;100.00;102175.44;2086355;28;20214;-67
2024/02/15 03:19:53;;;;;;;3.70;1.92;;;;;;;5.75;100.00;102161.69;2086334;28;20672;-67
2024/02/15 03:20:53;;;;;;;2.27;1.60;;;;;;;5.77;100.00;102162.94;2085068;28;20184;-67
2024/02/15 03:21:54;;;;;;;4.57;1.97;;;;;;;5.75;100.00;102158.94;2087903;28;20246;-67
2024/02/15 03:22:58;;;;;;;3.57;1.87;;;;;;;5.10;100.00;102072.75;2085696;28;20196;-67
2024/02/15 03:23:59;;;;;;;3.47;1.75;;;;;;;5.60;100.00;102146.84;2085593;28;20243;-67
2024/02/15 03:24:59;;;;;;;2.57;1.67;;;;;;;5.70;100.00;102167.50;2086148;28;20277;-67
2024/02/15 03:26:01;;;;;;;2.47;1.60;;;;;;;5.69;100.00;102174.16;2085921;28;20250;-67
2024/02/15 03:27:02;;;;;;;4.10;1.73;;;;;;;5.14;100.00;102100.31;2085712;28;20192;-67
2024/02/15 03:28:03;;;;;;;5.50;1.90;;;;;;;5.33;100.00;102114.09;2084620;28;20199;-67
2024/02/15 03:29:04;;;;;;;7.03;1.67;;;;;;;5.66;100.00;102172.13;2088184;28;20338;-67
2024/02/15 03:30:05;;;;;;;3.30;1.70;;;;;;;5.34;100.00;102121.94;2085940;28;20192;-67
2024/02/15 03:31:06;;;;;;;4.80;1.73;;;;;;;5.63;100.00;102172.81;2085825;28;20217;-67
2024/02/15 03:32:06;;;;;;;5.50;2.00;;;;;;;5.58;100.00;102171.16;2085012;28;20182;-67
2024/02/15 03:33:07;;;;;;;3.63;2.23;;;;;;;4.42;100.00;102002.97;2085656;28;20679;-67
2024/02/15 03:34:10;;;;;;;2.93;1.83;;;;;;;5.51;100.00;102167.47;2085290;28;20591;-67
2024/02/15 03:35:14;;;;;;;3.42;1.70;;;;;;;5.22;100.00;102113.03;2088326;28;20731;-67
2024/02/15 03:36:18;;;;;;;4.30;2.00;;;;;;;5.53;100.00;102167.94;2085603;28;20672;-67
2024/02/15 03:37:20;;;;;;;4.22;1.75;;;;;;;5.35;100.00;102150.25;2085308;28;20192;-67
2024/02/15 03:38:21;;;;;;;4.53;1.63;;;;;;;5.51;100.00;102182.03;2085435;28;20721;-67
2024/02/15 03:39:23;;;;;;;3.47;2.17;;;;;;;5.52;100.00;102180.06;2086331;28;20561;-67
2024/02/15 03:40:27;;;;;;;3.67;1.60;;;;;;;5.50;100.00;102174.13;2085765;28;20191;-67
2024/02/15 03:41:32;;;;;;;3.67;2.50;;;;;;;5.48;100.00;102174.50;2086064;28;20184;-67
2024/02/15 03:42:33;;;;;;;5.32;2.50;;;;;;;5.46;100.00;102170.50;2084943;28;20176;-67
2024/02/15 03:43:33;;;;;;;3.63;1.67;;;;;;;5.30;100.00;102156.84;2086973;28;20702;-67
2024/02/15 03:44:34;;;;;;;2.23;1.43;;;;;;;5.43;100.00;102174.00;2085465;28;20209;-67
2024/02/15 03:45:35;;;;;;;2.30;1.37;;;;;;;5.16;100.00;102141.97;2085844;28;20463;-67
2024/02/15 03:46:35;;;;;;;3.13;1.80;;;;;;;5.40;100.00;102174.69;2085397;28;20202;-67
2024/02/15 03:47:36;;;;;;;2.63;1.83;;;;;;;5.25;100.00;102161.81;2082985;28;20195;-67
2024/02/15 03:48:37;;;;;;;10.37;2.57;;;;;;;4.69;100.00;102065.19;2085170;28;20188;-67
2024/02/15 03:49:39;;;;;;;2.83;1.65;;;;;;;5.36;100.00;102173.81;2086852;28;20599;-66
2024/02/15 03:50:40;;;;;;;3.67;2.55;;;;;;;5.32;100.00;102176.50;2085166;28;20201;-67
2024/02/15 03:51:41;;;;;;;1.77;1.43;;;;;;;5.21;100.00;102167.22;2085964;28;20216;-67
2024/02/15 03:52:43;;;;;;;6.18;1.90;;;;;;;5.24;100.00;102173.97;2084780;28;20230;-69
2024/02/15 03:53:44;;;;;;;4.00;1.92;;;;;;;5.23;100.00;102169.63;2086119;28;20235;-69
2024/02/15 03:54:45;;;;;;;6.17;2.93;;;;;;;5.19;100.00;102171.50;2085305;28;20192;-66
2024/02/15 03:55:45;;;;;;;3.88;2.45;;;;;;;5.14;100.00;102169.78;2087732;28;20189;-67
2024/02/15 03:56:51;;;;;;;3.07;1.70;;;;;;;5.08;100.00;102171.22;2085100;28;20188;-67
2024/02/15 03:57:52;;;;;;;3.78;1.83;;;;;;;5.01;100.00;102171.09;2084606;28;20284;-67
2024/02/15 03:58:53;;;;;;;4.18;2.17;;;;;;;4.99;100.00;102169.84;2085870;28;20195;-69
2024/02/15 03:59:56;;;;;;;3.33;1.77;;;;;;;4.96;100.00;102176.84;2085751;28;20737;-69
2024/02/15 04:00:57;;;;;;;3.22;2.40;;;;;;;4.92;100.00;102172.44;2085572;28;20646;-69
2024/02/15 04:01:57;;;;;;;2.93;1.73;;;;;;;4.34;100.00;102097.28;2085416;28;20577;-67
2024/02/15 04:02:58;;;;;;;5.30;2.27;;;;;;;4.79;100.00;102165.44;2087127;28;20673;-69
2024/02/15 04:03:59;;;;;;;3.43;2.60;;;;;;;4.87;100.00;102178.19;2085465;28;20199;-69
2024/02/15 04:05:00;;;;;;;3.50;2.20;;;;;;;4.77;100.00;102170.50;2085731;28;20204;-69
2024/02/15 04:06:01;;;;;;;3.17;1.55;;;;;;;4.85;100.00;102178.56;2085762;28;20448;-66
2024/02/15 04:07:03;;;;;;;6.23;1.93;;;;;;;4.83;100.00;102178.09;2085249;28;20653;-66
2024/02/15 04:08:05;;;;;;;2.92;1.70;;;;;;;4.87;100.00;102183.69;2084568;28;20664;-67
2024/02/15 04:09:07;;;;;;;4.05;1.88;;;;;;;4.87;100.00;102187.22;2087777;28;20261;-67
2024/02/15 04:10:08;;;;;;;3.67;1.80;;;;;;;4.84;100.00;102189.88;2087094;28;20225;-67
2024/02/15 04:11:10;;;;;;;4.20;1.35;;;;;;;4.86;100.00;102190.31;2086306;28;20212;-67
2024/02/15 04:12:11;;;;;;;5.10;2.15;;;;;;;4.86;100.00;102190.31;2085273;28;20196;-67
2024/02/15 04:13:12;;;;;;;4.35;2.42;;;;;;;4.85;100.00;102194.22;2086000;28;20191;-67
2024/02/15 04:14:13;;;;;;;2.90;1.77;;;;;;;4.85;100.00;102195.03;2083455;28;20740;-67
2024/02/15 04:15:16;;;;;;;2.70;1.80;;;;;;;4.85;100.00;102189.53;2085338;28;20669;-67
2024/02/15 04:16:18;;;;;;;5.05;2.08;;;;;;;4.91;100.00;102201.84;2086723;28;20192;-67
2024/02/15 04:17:21;;;;;;;3.03;1.92;;;;;;;4.04;100.00;102060.44;2084561;28;20193;-67
2024/02/15 04:18:22;;;;;;;3.70;1.83;;;;;;;5.00;100.00;102194.22;2085288;28;20242;-67
2024/02/15 04:19:22;;;;;;;4.17;1.83;;;;;;;5.00;100.00;102199.72;2086127;28;20196;-67
2024/02/15 04:20:23;;;;;;;3.60;1.90;;;;;;;4.99;100.00;102200.88;2085797;28;20200;-67
2024/02/15 04:21:23;;;;;;;4.70;1.90;;;;;;;5.05;100.00;102206.88;2086073;28;20215;-67
2024/02/15 04:22:24;;;;;;;2.63;1.70;;;;;;;5.05;100.00;102204.13;2086387;28;20245;-67
2024/02/15 04:23:24;;;;;;;2.70;1.70;;;;;;;4.88;100.00;102175.06;2086979;28;20200;-67
2024/02/15 04:24:25;;;;;;;6.10;2.03;;;;;;;5.10;100.00;102240.38;2084244;28;20541;-67
2024/02/15 04:25:27;;;;;;;3.07;1.80;;;;;;;5.07;100.00;102197.13;2085232;28;20197;-67
2024/02/15 04:26:30;;;;;;;3.72;2.15;;;;;;;4.98;100.00;102184.75;2084600;28;20275;-67
2024/02/15 04:27:30;;;;;;;3.30;1.95;;;;;;;5.16;100.00;102205.97;2084244;28;20473;-67
2024/02/15 04:28:33;;;;;;;5.80;1.90;;;;;;;5.19;100.00;102207.22;2085769;28;20184;-67
2024/02/15 04:29:34;;;;;;;1.90;1.27;;;;;;;5.21;100.00;102232.38;2087654;28;20707;-67
2024/02/15 04:30:38;;;;;;;3.42;1.67;;;;;;;5.17;100.00;102195.75;2085831;28;20199;-67
2024/02/15 04:31:39;;;;;;;2.15;1.50;;;;;;;5.27;100.00;102204.25;2085662;28;20263;-67
2024/02/15 04:32:40;;;;;;;4.32;2.30;;;;;;;5.33;100.00;102202.03;2086015;28;20609;-67
2024/02/15 04:33:41;;;;;;;5.13;1.83;;;;;;;5.20;100.00;102182.13;2085516;28;20224;-67
2024/02/15 04:34:41;;;;;;;4.20;2.00;;;;;;;5.37;100.00;102203.72;2084624;28;20188;-67
2024/02/15 04:35:43;;;;;;;3.87;1.80;;;;;;;4.74;100.00;102097.84;2086378;28;20180;-67
2024/02/15 04:36:53;;;;;;;2.90;1.65;;;;;;;5.40;100.00;102192.00;2085422;28;20274;-67
2024/02/15 04:37:54;;;;;;;2.67;1.80;;;;;;;5.41;100.00;102190.84;2083828;28;20295;-67
2024/02/15 04:38:54;;;;;;;4.90;1.50;;;;;;;5.42;100.00;102191.63;2084067;28;20192;-67
2024/02/15 04:39:56;;;;;;;4.63;1.70;;;;;;;5.39;100.00;102195.88;2084229;28;20246;-66
2024/02/15 04:40:57;;;;;;;2.53;1.58;;;;;;;5.31;100.00;102194.16;2085499;28;20199;-67
2024/02/15 04:41:58;;;;;;;4.63;1.65;;;;;;;5.31;100.00;102196.09;2085623;28;20185;-67
2024/02/15 04:42:58;;;;;;;4.37;1.87;;;;;;;5.30;100.00;102195.31;2086515;28;20176;-67
2024/02/15 04:43:59;;;;;;;2.53;1.80;;;;;;;5.30;100.00;102200.81;2086725;28;20197;-66
2024/02/15 04:44:59;;;;;;;2.17;1.47;;;;;;;5.25;100.00;102201.09;2085240;28;20765;-67